sensor_id;sensor_type;location;lat;lon;timestamp;pressure;altitude;pressure_sealevel;temperature;humidity
7333;BME280;3707;43.618;25.342;2023-05-22T00:00:30;100019.25;;;17.82;100.00
7333;BME280;3707;43.618;25.342;2023-05-22T00:03:01;100008.66;;;17.89;100.00
7333;BME280;3707;43.618;25.342;2023-05-22T00:05:29;99981.06;;;17.65;100.00
7333;BME280;3707;43.618;25.342;2023-05-22T00:07:56;100008.03;;;17.73;100.00
7333;BME280;3707;43.618;25.342;2023-05-22T00:10:23;99990.63;;;17.69;100.00
7333;BME280;3707;43.618;25.342;2023-05-22T00:12:50;99994.78;;;17.82;100.00
7333;BME280;3707;43.618;25.342;2023-05-22T00:15:16;100007.00;;;17.83;100.00
7333;BME280;3707;43.618;25.342;2023-05-22T00:17:43;100013.25;;;17.76;100.00
7333;BME280;3707;43.618;25.342;2023-05-22T00:20:13;100012.28;;;17.80;100.00
7333;BME280;3707;43.618;25.342;2023-05-22T00:22:40;100006.38;;;17.66;100.00
7333;BME280;3707;43.618;25.342;2023-05-22T00:25:09;100007.25;;;17.68;100.00
7333;BME280;3707;43.618;25.342;2023-05-22T00:27:35;99989.97;;;17.52;100.00
7333;BME280;3707;43.618;25.342;2023-05-22T00:30:03;100008.16;;;17.64;100.00
7333;BME280;3707;43.618;25.342;2023-05-22T00:32:30;100004.78;;;17.57;100.00
7333;BME280;3707;43.618;25.342;2023-05-22T00:34:57;99994.28;;;17.56;100.00
7333;BME280;3707;43.618;25.342;2023-05-22T00:37:25;100002.81;;;17.70;100.00
7333;BME280;3707;43.618;25.342;2023-05-22T00:39:52;99995.19;;;17.53;100.00
7333;BME280;3707;43.618;25.342;2023-05-22T00:42:21;99996.00;;;17.61;100.00
7333;BME280;3707;43.618;25.342;2023-05-22T00:44:48;100003.91;;;17.57;100.00
7333;BME280;3707;43.618;25.342;2023-05-22T00:47:15;100001.41;;;17.48;100.00
7333;BME280;3707;43.618;25.342;2023-05-22T00:49:42;100010.03;;;17.53;100.00
7333;BME280;3707;43.618;25.342;2023-05-22T00:52:10;99999.47;;;17.60;100.00
7333;BME280;3707;43.618;25.342;2023-05-22T00:54:39;99983.06;;;17.45;100.00
7333;BME280;3707;43.618;25.342;2023-05-22T00:57:06;100003.22;;;17.43;100.00
7333;BME280;3707;43.618;25.342;2023-05-22T00:59:34;99992.72;;;17.44;100.00
7333;BME280;3707;43.618;25.342;2023-05-22T01:02:01;99995.44;;;17.37;100.00
7333;BME280;3707;43.618;25.342;2023-05-22T01:04:28;99969.63;;;17.06;100.00
7333;BME280;3707;43.618;25.342;2023-05-22T01:06:57;99999.97;;;17.25;100.00
7333;BME280;3707;43.618;25.342;2023-05-22T01:09:27;99984.38;;;17.13;100.00
7333;BME280;3707;43.618;25.342;2023-05-22T01:12:00;99996.47;;;17.26;100.00
7333;BME280;3707;43.618;25.342;2023-05-22T01:14:38;100024.28;;;17.37;100.00
7333;BME280;3707;43.618;25.342;2023-05-22T01:17:12;100015.63;;;17.28;100.00
7333;BME280;3707;43.618;25.342;2023-05-22T01:20:00;100019.19;;;17.24;100.00
7333;BME280;3707;43.618;25.342;2023-05-22T01:22:49;99981.91;;;17.03;100.00
7333;BME280;3707;43.618;25.342;2023-05-22T01:25:57;100012.38;;;17.11;100.00
7333;BME280;3707;43.618;25.342;2023-05-22T01:28:40;100005.31;;;17.16;100.00
7333;BME280;3707;43.618;25.342;2023-05-22T01:31:15;99990.63;;;17.03;100.00
7333;BME280;3707;43.618;25.342;2023-05-22T01:33:46;99991.47;;;17.07;100.00
7333;BME280;3707;43.618;25.342;2023-05-22T01:36:14;100000.28;;;16.98;100.00
7333;BME280;3707;43.618;25.342;2023-05-22T01:38:45;99992.63;;;16.83;100.00
7333;BME280;3707;43.618;25.342;2023-05-22T01:41:12;99991.91;;;16.72;100.00
7333;BME280;3707;43.618;25.342;2023-05-22T01:43:40;99986.66;;;16.72;100.00
7333;BME280;3707;43.618;25.342;2023-05-22T01:46:07;99985.00;;;16.65;100.00
7333;BME280;3707;43.618;25.342;2023-05-22T01:48:35;99984.91;;;16.72;100.00
7333;BME280;3707;43.618;25.342;2023-05-22T01:51:09;99981.50;;;16.64;100.00
7333;BME280;3707;43.618;25.342;2023-05-22T01:53:40;99979.72;;;16.69;100.00
7333;BME280;3707;43.618;25.342;2023-05-22T01:56:13;99984.91;;;16.71;100.00
7333;BME280;3707;43.618;25.342;2023-05-22T01:58:46;99977.91;;;16.74;100.00
7333;BME280;3707;43.618;25.342;2023-05-22T02:01:18;99986.66;;;16.72;100.00
7333;BME280;3707;43.618;25.342;2023-05-22T02:03:48;99988.38;;;16.76;100.00
7333;BME280;3707;43.618;25.342;2023-05-22T02:06:20;99986.72;;;16.66;100.00
7333;BME280;3707;43.618;25.342;2023-05-22T02:08:49;99985.84;;;16.67;100.00
7333;BME280;3707;43.618;25.342;2023-05-22T02:11:18;99981.50;;;16.63;100.00
7333;BME280;3707;43.618;25.342;2023-05-22T02:13:47;99978.09;;;16.55;100.00
7333;BME280;3707;43.618;25.342;2023-05-22T02:16:14;99985.09;;;16.53;100.00
7333;BME280;3707;43.618;25.342;2023-05-22T02:18:41;99991.19;;;16.52;100.00
7333;BME280;3707;43.618;25.342;2023-05-22T02:21:10;99969.44;;;16.47;100.00
7333;BME280;3707;43.618;25.342;2023-05-22T02:23:36;99985.09;;;16.53;100.00
7333;BME280;3707;43.618;25.342;2023-05-22T02:26:04;99985.09;;;16.53;100.00
7333;BME280;3707;43.618;25.342;2023-05-22T02:28:31;99990.38;;;16.47;100.00
7333;BME280;3707;43.618;25.342;2023-05-22T02:30:58;99985.13;;;16.48;100.00
7333;BME280;3707;43.618;25.342;2023-05-22T02:33:25;99991.19;;;16.52;100.00
7333;BME280;3707;43.618;25.342;2023-05-22T02:35:53;99988.59;;;16.49;100.00
7333;BME280;3707;43.618;25.342;2023-05-22T02:38:22;99972.88;;;16.52;100.00
7333;BME280;3707;43.618;25.342;2023-05-22T02:40:48;99994.63;;;16.55;100.00
7333;BME280;3707;43.618;25.342;2023-05-22T02:43:15;99995.50;;;16.62;100.00
7333;BME280;3707;43.618;25.342;2023-05-22T02:45:42;99996.34;;;16.62;100.00
7333;BME280;3707;43.618;25.342;2023-05-22T02:48:09;99999.78;;;16.66;100.00
7333;BME280;3707;43.618;25.342;2023-05-22T02:50:36;99997.16;;;16.69;100.00
7333;BME280;3707;43.618;25.342;2023-05-22T02:53:02;99982.47;;;16.57;100.00
7333;BME280;3707;43.618;25.342;2023-05-22T02:55:30;99996.88;;;16.93;100.00
7333;BME280;3707;43.618;25.342;2023-05-22T02:57:57;99982.47;;;17.26;100.00
7333;BME280;3707;43.618;25.342;2023-05-22T03:00:24;99964.88;;;17.35;100.00
7333;BME280;3707;43.618;25.342;2023-05-22T03:02:51;99989.47;;;17.25;100.00
7333;BME280;3707;43.618;25.342;2023-05-22T03:05:18;99997.34;;;17.24;100.00
7333;BME280;3707;43.618;25.342;2023-05-22T03:07:44;100001.59;;;17.32;100.00
7333;BME280;3707;43.618;25.342;2023-05-22T03:10:11;99988.63;;;17.23;100.00
7333;BME280;3707;43.618;25.342;2023-05-22T03:12:39;100001.47;;;17.43;100.00
7333;BME280;3707;43.618;25.342;2023-05-22T03:15:07;99977.41;;;17.75;100.00
7333;BME280;3707;43.618;25.342;2023-05-22T03:17:34;99984.00;;;17.99;100.00
7333;BME280;3707;43.618;25.342;2023-05-22T03:20:01;99991.09;;;17.94;100.00
7333;BME280;3707;43.618;25.342;2023-05-22T03:22:28;99980.03;;;17.75;100.00
7333;BME280;3707;43.618;25.342;2023-05-22T03:24:54;100006.22;;;17.78;100.00
7333;BME280;3707;43.618;25.342;2023-05-22T03:27:21;100004.34;;;17.86;100.00
7333;BME280;3707;43.618;25.342;2023-05-22T03:29:50;100011.00;;;18.05;100.00
7333;BME280;3707;43.618;25.342;2023-05-22T03:32:17;99984.00;;;18.00;100.00
7333;BME280;3707;43.618;25.342;2023-05-22T03:34:43;99923.91;;;17.85;100.00
7333;BME280;3707;43.618;25.342;2023-05-22T03:37:10;100001.63;;;18.43;100.00
7333;BME280;3707;43.618;25.342;2023-05-22T03:39:37;100018.03;;;18.55;100.00
7333;BME280;3707;43.618;25.342;2023-05-22T03:42:05;100010.72;;;18.72;100.00
7333;BME280;3707;43.618;25.342;2023-05-22T03:44:31;100022.78;;;18.83;100.00
7333;BME280;3707;43.618;25.342;2023-05-22T03:47:00;100020.59;;;19.04;100.00
7333;BME280;3707;43.618;25.342;2023-05-22T03:49:26;100031.78;;;19.14;100.00
7333;BME280;3707;43.618;25.342;2023-05-22T03:51:53;100026.13;;;19.32;100.00
7333;BME280;3707;43.618;25.342;2023-05-22T03:54:20;100010.31;;;19.33;100.00
7333;BME280;3707;43.618;25.342;2023-05-22T03:56:47;100028.88;;;19.67;100.00
7333;BME280;3707;43.618;25.342;2023-05-22T03:59:13;100029.88;;;20.00;100.00
7333;BME280;3707;43.618;25.342;2023-05-22T04:01:40;100029.84;;;20.37;100.00
7333;BME280;3707;43.618;25.342;2023-05-22T04:04:09;100030.50;;;20.77;100.00
7333;BME280;3707;43.618;25.342;2023-05-22T04:06:36;100032.94;;;20.85;100.00
7333;BME280;3707;43.618;25.342;2023-05-22T04:09:08;100022.16;;;21.25;100.00
7333;BME280;3707;43.618;25.342;2023-05-22T04:11:35;100033.81;;;21.75;100.00
7333;BME280;3707;43.618;25.342;2023-05-22T04:14:04;100037.31;;;22.30;100.00
7333;BME280;3707;43.618;25.342;2023-05-22T04:16:31;100032.63;;;22.39;100.00
7333;BME280;3707;43.618;25.342;2023-05-22T04:18:57;100049.28;;;22.92;99.85
7333;BME280;3707;43.618;25.342;2023-05-22T04:21:27;100049.44;;;22.88;99.73
7333;BME280;3707;43.618;25.342;2023-05-22T04:23:53;100058.31;;;23.33;98.10
7333;BME280;3707;43.618;25.342;2023-05-22T04:26:20;100058.16;;;23.84;91.44
7333;BME280;3707;43.618;25.342;2023-05-22T04:28:47;100066.81;;;24.33;87.81
7333;BME280;3707;43.618;25.342;2023-05-22T04:31:14;100065.66;;;24.60;86.51
7333;BME280;3707;43.618;25.342;2023-05-22T04:33:41;100060.66;;;24.73;83.19
7333;BME280;3707;43.618;25.342;2023-05-22T04:36:12;100072.47;;;25.45;82.65
7333;BME280;3707;43.618;25.342;2023-05-22T04:38:40;100077.81;;;26.01;79.95
7333;BME280;3707;43.618;25.342;2023-05-22T04:41:09;100070.63;;;26.03;74.79
7333;BME280;3707;43.618;25.342;2023-05-22T04:43:36;100079.69;;;25.80;73.79
7333;BME280;3707;43.618;25.342;2023-05-22T04:46:04;100062.78;;;25.44;74.70
7333;BME280;3707;43.618;25.342;2023-05-22T04:48:31;100070.44;;;25.70;71.61
7333;BME280;3707;43.618;25.342;2023-05-22T04:50:58;100073.81;;;25.92;70.13
7333;BME280;3707;43.618;25.342;2023-05-22T04:53:26;100072.06;;;25.91;69.41
7333;BME280;3707;43.618;25.342;2023-05-22T04:55:56;100077.25;;;25.76;71.25
7333;BME280;3707;43.618;25.342;2023-05-22T04:58:23;100064.00;;;25.37;71.85
7333;BME280;3707;43.618;25.342;2023-05-22T05:00:51;100082.09;;;25.29;78.34
7333;BME280;3707;43.618;25.342;2023-05-22T05:03:18;100065.50;;;25.24;72.15
7333;BME280;3707;43.618;25.342;2023-05-22T05:05:45;100084.97;;;25.43;72.54
7333;BME280;3707;43.618;25.342;2023-05-22T05:08:12;100086.06;;;25.95;70.50
7333;BME280;3707;43.618;25.342;2023-05-22T05:10:39;100093.16;;;26.32;67.16
7333;BME280;3707;43.618;25.342;2023-05-22T05:13:08;100081.63;;;26.50;66.19
7333;BME280;3707;43.618;25.342;2023-05-22T05:15:35;100082.28;;;26.89;64.35
7333;BME280;3707;43.618;25.342;2023-05-22T05:18:01;100089.06;;;26.78;62.62
7333;BME280;3707;43.618;25.342;2023-05-22T05:20:28;100059.69;;;26.79;63.53
7333;BME280;3707;43.618;25.342;2023-05-22T05:22:55;100094.59;;;27.25;61.31
7333;BME280;3707;43.618;25.342;2023-05-22T05:25:22;100019.94;;;26.76;61.41
7333;BME280;3707;43.618;25.342;2023-05-22T05:27:49;100092.22;;;27.36;60.09
7333;BME280;3707;43.618;25.342;2023-05-22T05:30:17;100088.91;;;27.48;58.61
7333;BME280;3707;43.618;25.342;2023-05-22T05:32:44;100080.69;;;27.35;59.85
7333;BME280;3707;43.618;25.342;2023-05-22T05:35:11;100068.28;;;27.51;59.35
7333;BME280;3707;43.618;25.342;2023-05-22T05:37:37;100089.91;;;27.78;58.54
7333;BME280;3707;43.618;25.342;2023-05-22T05:40:05;100079.72;;;27.36;58.75
7333;BME280;3707;43.618;25.342;2023-05-22T05:42:32;100086.81;;;26.87;61.91
7333;BME280;3707;43.618;25.342;2023-05-22T05:45:00;100084.13;;;26.70;62.63
7333;BME280;3707;43.618;25.342;2023-05-22T05:47:28;100086.59;;;26.39;61.21
7333;BME280;3707;43.618;25.342;2023-05-22T05:49:55;100104.75;;;25.75;64.41
7333;BME280;3707;43.618;25.342;2023-05-22T05:52:22;100084.38;;;24.55;68.28
7333;BME280;3707;43.618;25.342;2023-05-22T05:54:51;100072.00;;;24.76;67.47
7333;BME280;3707;43.618;25.342;2023-05-22T05:57:18;100086.22;;;24.75;69.88
7333;BME280;3707;43.618;25.342;2023-05-22T05:59:45;100087.28;;;24.91;71.23
7333;BME280;3707;43.618;25.342;2023-05-22T06:02:11;100071.66;;;24.43;73.26
7333;BME280;3707;43.618;25.342;2023-05-22T06:04:39;100076.22;;;23.96;78.77
7333;BME280;3707;43.618;25.342;2023-05-22T06:07:07;100093.56;;;23.82;80.75
7333;BME280;3707;43.618;25.342;2023-05-22T06:09:33;100091.41;;;23.91;78.93
7333;BME280;3707;43.618;25.342;2023-05-22T06:12:00;100081.44;;;23.98;78.28
7333;BME280;3707;43.618;25.342;2023-05-22T06:14:27;100094.19;;;23.88;77.22
7333;BME280;3707;43.618;25.342;2023-05-22T06:16:54;100079.09;;;23.68;78.31
7333;BME280;3707;43.618;25.342;2023-05-22T06:19:20;100052.81;;;23.62;77.92
7333;BME280;3707;43.618;25.342;2023-05-22T06:21:48;100079.00;;;23.93;78.72
7333;BME280;3707;43.618;25.342;2023-05-22T06:24:15;100073.28;;;23.34;79.19
7333;BME280;3707;43.618;25.342;2023-05-22T06:26:42;100086.56;;;23.09;80.66
7333;BME280;3707;43.618;25.342;2023-05-22T06:29:09;100085.16;;;22.75;84.76
7333;BME280;3707;43.618;25.342;2023-05-22T06:31:35;100076.16;;;22.54;91.15
7333;BME280;3707;43.618;25.342;2023-05-22T06:34:04;100079.84;;;22.48;88.13
7333;BME280;3707;43.618;25.342;2023-05-22T06:36:31;100086.72;;;22.80;88.94
7333;BME280;3707;43.618;25.342;2023-05-22T06:39:00;100053.91;;;22.61;88.27
7333;BME280;3707;43.618;25.342;2023-05-22T06:41:27;100079.31;;;22.65;89.61
7333;BME280;3707;43.618;25.342;2023-05-22T06:43:53;100073.41;;;22.57;92.48
7333;BME280;3707;43.618;25.342;2023-05-22T06:46:20;100072.13;;;22.44;90.90
7333;BME280;3707;43.618;25.342;2023-05-22T06:48:48;100062.16;;;22.26;90.28
7333;BME280;3707;43.618;25.342;2023-05-22T06:51:14;100057.41;;;21.80;93.47
7333;BME280;3707;43.618;25.342;2023-05-22T06:53:41;100050.75;;;21.97;96.08
7333;BME280;3707;43.618;25.342;2023-05-22T06:56:09;100059.91;;;22.40;93.53
7333;BME280;3707;43.618;25.342;2023-05-22T06:58:36;100075.69;;;22.41;92.10
7333;BME280;3707;43.618;25.342;2023-05-22T07:01:04;100083.47;;;22.19;94.68
7333;BME280;3707;43.618;25.342;2023-05-22T07:03:32;100058.19;;;21.83;97.59
7333;BME280;3707;43.618;25.342;2023-05-22T07:05:58;100081.66;;;22.21;95.35
7333;BME280;3707;43.618;25.342;2023-05-22T07:08:26;100088.06;;;21.85;95.31
7333;BME280;3707;43.618;25.342;2023-05-22T07:10:53;100033.88;;;22.28;92.79
7333;BME280;3707;43.618;25.342;2023-05-22T07:13:21;100080.38;;;22.86;90.83
7333;BME280;3707;43.618;25.342;2023-05-22T07:15:49;100052.31;;;22.82;87.90
7333;BME280;3707;43.618;25.342;2023-05-22T07:18:16;100079.63;;;22.82;89.96
7333;BME280;3707;43.618;25.342;2023-05-22T07:20:43;100078.41;;;23.15;88.94
7333;BME280;3707;43.618;25.342;2023-05-22T07:23:10;100076.88;;;22.85;89.23
7333;BME280;3707;43.618;25.342;2023-05-22T07:25:37;100059.91;;;22.40;92.02
7333;BME280;3707;43.618;25.342;2023-05-22T07:28:03;100064.47;;;22.61;91.91
7333;BME280;3707;43.618;25.342;2023-05-22T07:30:34;100055.00;;;22.80;93.59
7333;BME280;3707;43.618;25.342;2023-05-22T07:33:02;100076.75;;;22.88;92.00
7333;BME280;3707;43.618;25.342;2023-05-22T07:35:28;100080.78;;;22.98;89.09
7333;BME280;3707;43.618;25.342;2023-05-22T07:37:56;100077.56;;;23.15;88.87
7333;BME280;3707;43.618;25.342;2023-05-22T07:40:22;100083.38;;;23.25;88.31
7333;BME280;3707;43.618;25.342;2023-05-22T07:42:49;100075.38;;;23.01;88.82
7333;BME280;3707;43.618;25.342;2023-05-22T07:45:16;100082.84;;;22.90;90.24
7333;BME280;3707;43.618;25.342;2023-05-22T07:47:44;100081.31;;;23.33;86.98
7333;BME280;3707;43.618;25.342;2023-05-22T07:50:11;100081.19;;;23.36;86.60
7333;BME280;3707;43.618;25.342;2023-05-22T07:52:37;100079.63;;;22.82;87.63
7333;BME280;3707;43.618;25.342;2023-05-22T07:55:05;100077.84;;;23.31;84.18
7333;BME280;3707;43.618;25.342;2023-05-22T07:57:32;100084.34;;;23.47;82.15
7333;BME280;3707;43.618;25.342;2023-05-22T08:00:00;100089.03;;;23.62;81.56
7333;BME280;3707;43.618;25.342;2023-05-22T08:02:37;100059.28;;;23.79;80.28
7333;BME280;3707;43.618;25.342;2023-05-22T08:05:06;100082.50;;;24.15;79.08
7333;BME280;3707;43.618;25.342;2023-05-22T08:07:33;100080.38;;;24.25;78.42
7333;BME280;3707;43.618;25.342;2023-05-22T08:10:02;100049.09;;;23.45;79.16
7333;BME280;3707;43.618;25.342;2023-05-22T08:12:29;100072.31;;;24.05;80.31
7333;BME280;3707;43.618;25.342;2023-05-22T08:14:56;100071.56;;;24.25;78.03
7333;BME280;3707;43.618;25.342;2023-05-22T08:17:23;100069.22;;;24.59;76.57
7333;BME280;3707;43.618;25.342;2023-05-22T08:19:49;100065.94;;;24.94;76.43
7333;BME280;3707;43.618;25.342;2023-05-22T08:22:18;100078.44;;;25.31;71.14
7333;BME280;3707;43.618;25.342;2023-05-22T08:24:44;100080.88;;;25.36;68.75
7333;BME280;3707;43.618;25.342;2023-05-22T08:27:11;100002.06;;;24.79;71.65
7333;BME280;3707;43.618;25.342;2023-05-22T08:29:38;100075.09;;;25.07;70.71
7333;BME280;3707;43.618;25.342;2023-05-22T08:32:05;100072.53;;;25.04;71.97
7333;BME280;3707;43.618;25.342;2023-05-22T08:34:32;100071.16;;;24.76;72.54
7333;BME280;3707;43.618;25.342;2023-05-22T08:36:59;100067.41;;;24.39;74.10
7333;BME280;3707;43.618;25.342;2023-05-22T08:39:28;100078.41;;;24.72;76.64
7333;BME280;3707;43.618;25.342;2023-05-22T08:41:55;100078.91;;;24.80;72.28
7333;BME280;3707;43.618;25.342;2023-05-22T08:44:22;100071.72;;;24.42;71.13
7333;BME280;3707;43.618;25.342;2023-05-22T08:46:50;100063.28;;;24.10;73.38
7333;BME280;3707;43.618;25.342;2023-05-22T08:49:19;100072.78;;;24.58;74.99
7333;BME280;3707;43.618;25.342;2023-05-22T08:51:47;100074.78;;;24.73;71.65
7333;BME280;3707;43.618;25.342;2023-05-22T08:54:20;100074.53;;;24.79;70.32
7333;BME280;3707;43.618;25.342;2023-05-22T08:56:49;100038.09;;;24.84;70.82
7333;BME280;3707;43.618;25.342;2023-05-22T08:59:18;100038.09;;;24.84;71.31
7333;BME280;3707;43.618;25.342;2023-05-22T09:01:45;100029.31;;;24.82;70.57
7333;BME280;3707;43.618;25.342;2023-05-22T09:04:13;100064.84;;;24.78;72.07
7333;BME280;3707;43.618;25.342;2023-05-22T09:06:40;100055.31;;;24.74;72.88
7333;BME280;3707;43.618;25.342;2023-05-22T09:09:07;100026.97;;;24.12;74.33
7333;BME280;3707;43.618;25.342;2023-05-22T09:11:34;100055.47;;;24.29;76.70
7333;BME280;3707;43.618;25.342;2023-05-22T09:14:09;100062.34;;;24.75;74.21
7333;BME280;3707;43.618;25.342;2023-05-22T09:16:43;100038.72;;;24.69;73.77
7333;BME280;3707;43.618;25.342;2023-05-22T09:19:11;100039.03;;;24.41;73.64
7333;BME280;3707;43.618;25.342;2023-05-22T09:21:38;100045.88;;;24.67;71.95
7333;BME280;3707;43.618;25.342;2023-05-22T09:24:06;100050.00;;;24.74;71.99
7333;BME280;3707;43.618;25.342;2023-05-22T09:26:34;100050.97;;;24.93;72.65
7333;BME280;3707;43.618;25.342;2023-05-22T09:29:01;100049.19;;;25.12;72.04
7333;BME280;3707;43.618;25.342;2023-05-22T09:31:29;100049.50;;;25.44;68.65
7333;BME280;3707;43.618;25.342;2023-05-22T09:33:56;100048.22;;;25.34;67.71
7333;BME280;3707;43.618;25.342;2023-05-22T09:36:29;100035.41;;;25.04;68.58
7333;BME280;3707;43.618;25.342;2023-05-22T09:38:59;100048.47;;;25.09;68.48
7333;BME280;3707;43.618;25.342;2023-05-22T09:41:27;100047.25;;;25.16;69.57
7333;BME280;3707;43.618;25.342;2023-05-22T09:43:55;100041.47;;;25.27;67.24
7333;BME280;3707;43.618;25.342;2023-05-22T09:46:21;100016.13;;;25.20;67.63
7333;BME280;3707;43.618;25.342;2023-05-22T09:48:51;100014.50;;;25.73;64.34
7333;BME280;3707;43.618;25.342;2023-05-22T09:51:20;100018.59;;;25.61;65.25
7333;BME280;3707;43.618;25.342;2023-05-22T09:53:48;100040.81;;;25.40;69.92
7333;BME280;3707;43.618;25.342;2023-05-22T09:56:17;100032.19;;;25.74;65.40
7333;BME280;3707;43.618;25.342;2023-05-22T09:58:49;100032.25;;;26.08;64.53
7333;BME280;3707;43.618;25.342;2023-05-22T10:01:18;100026.06;;;26.27;62.01
7333;BME280;3707;43.618;25.342;2023-05-22T10:03:46;100034.19;;;26.24;65.09
7333;BME280;3707;43.618;25.342;2023-05-22T10:06:20;100030.94;;;26.36;66.78
7333;BME280;3707;43.618;25.342;2023-05-22T10:08:49;100029.50;;;25.93;68.56
7333;BME280;3707;43.618;25.342;2023-05-22T10:11:20;100029.50;;;25.37;72.51
7333;BME280;3707;43.618;25.342;2023-05-22T10:13:48;100029.03;;;25.66;69.35
7333;BME280;3707;43.618;25.342;2023-05-22T10:16:15;100027.44;;;25.62;72.24
7333;BME280;3707;43.618;25.342;2023-05-22T10:18:44;100028.97;;;25.47;72.04
7333;BME280;3707;43.618;25.342;2023-05-22T10:21:14;100036.47;;;25.77;69.54
7333;BME280;3707;43.618;25.342;2023-05-22T10:23:42;100029.88;;;25.85;69.35
7333;BME280;3707;43.618;25.342;2023-05-22T10:26:10;100027.16;;;26.40;67.08
7333;BME280;3707;43.618;25.342;2023-05-22T10:28:40;100022.88;;;26.89;64.03
7333;BME280;3707;43.618;25.342;2023-05-22T10:31:16;100024.28;;;27.11;62.42
7333;BME280;3707;43.618;25.342;2023-05-22T10:33:48;100012.22;;;26.89;62.86
7333;BME280;3707;43.618;25.342;2023-05-22T10:36:26;100015.22;;;27.31;61.98
7333;BME280;3707;43.618;25.342;2023-05-22T10:39:12;100012.91;;;27.41;61.61
7333;BME280;3707;43.618;25.342;2023-05-22T10:41:47;100015.19;;;27.16;62.38
7333;BME280;3707;43.618;25.342;2023-05-22T10:44:14;100011.69;;;27.31;62.00
7333;BME280;3707;43.618;25.342;2023-05-22T10:46:47;100011.59;;;27.17;61.43
7333;BME280;3707;43.618;25.342;2023-05-22T10:49:19;100011.13;;;26.93;61.60
7333;BME280;3707;43.618;25.342;2023-05-22T10:51:47;100001.97;;;27.30;60.85
7333;BME280;3707;43.618;25.342;2023-05-22T10:54:16;100000.38;;;27.43;60.67
7333;BME280;3707;43.618;25.342;2023-05-22T10:56:42;99976.03;;;27.33;59.63
7333;BME280;3707;43.618;25.342;2023-05-22T10:59:10;99979.59;;;27.81;59.01
7333;BME280;3707;43.618;25.342;2023-05-22T11:01:37;99961.00;;;27.79;58.23
7333;BME280;3707;43.618;25.342;2023-05-22T11:04:11;99979.75;;;28.39;57.78
7333;BME280;3707;43.618;25.342;2023-05-22T11:06:42;99967.75;;;28.46;54.86
7333;BME280;3707;43.618;25.342;2023-05-22T11:09:26;99932.63;;;28.53;54.42
7333;BME280;3707;43.618;25.342;2023-05-22T11:12:13;99977.34;;;28.34;54.57
7333;BME280;3707;43.618;25.342;2023-05-22T11:14:42;99968.31;;;28.07;55.55
7333;BME280;3707;43.618;25.342;2023-05-22T11:17:11;99958.38;;;28.25;56.99
7333;BME280;3707;43.618;25.342;2023-05-22T11:19:39;99955.78;;;28.23;55.31
7333;BME280;3707;43.618;25.342;2023-05-22T11:22:06;99967.78;;;28.16;54.27
7333;BME280;3707;43.618;25.342;2023-05-22T11:24:36;99958.28;;;27.65;58.00
7333;BME280;3707;43.618;25.342;2023-05-22T11:27:05;99965.09;;;26.91;64.27
7333;BME280;3707;43.618;25.342;2023-05-22T11:29:32;99942.59;;;26.12;72.24
7333;BME280;3707;43.618;25.342;2023-05-22T11:32:00;99925.84;;;25.21;82.15
7333;BME280;3707;43.618;25.342;2023-05-22T11:34:27;99943.00;;;24.75;100.00
7333;BME280;3707;43.618;25.342;2023-05-22T11:36:57;99910.94;;;24.61;100.00
7333;BME280;3707;43.618;25.342;2023-05-22T11:39:24;99926.31;;;24.53;100.00
7333;BME280;3707;43.618;25.342;2023-05-22T11:41:53;99929.50;;;24.80;100.00
7333;BME280;3707;43.618;25.342;2023-05-22T11:44:19;99929.25;;;25.04;100.00
7333;BME280;3707;43.618;25.342;2023-05-22T11:46:46;99926.78;;;25.75;100.00
7333;BME280;3707;43.618;25.342;2023-05-22T11:49:13;99926.75;;;25.93;82.13
7333;BME280;3707;43.618;25.342;2023-05-22T11:51:41;99919.69;;;26.44;88.76
7333;BME280;3707;43.618;25.342;2023-05-22T11:54:09;99919.72;;;27.25;80.74
7333;BME280;3707;43.618;25.342;2023-05-22T11:56:36;99903.47;;;27.30;75.37
7333;BME280;3707;43.618;25.342;2023-05-22T11:59:04;99914.97;;;27.62;69.03
7333;BME280;3707;43.618;25.342;2023-05-22T12:01:31;99913.06;;;27.01;66.81
7333;BME280;3707;43.618;25.342;2023-05-22T12:04:00;99904.25;;;27.47;65.52
7333;BME280;3707;43.618;25.342;2023-05-22T12:06:27;99904.94;;;27.96;66.60
7333;BME280;3707;43.618;25.342;2023-05-22T12:08:57;99913.88;;;27.95;60.55
7333;BME280;3707;43.618;25.342;2023-05-22T12:11:25;99891.22;;;28.18;57.27
7333;BME280;3707;43.618;25.342;2023-05-22T12:13:59;99894.09;;;27.99;54.86
7333;BME280;3707;43.618;25.342;2023-05-22T12:16:32;99889.31;;;28.20;63.23
7333;BME280;3707;43.618;25.342;2023-05-22T12:19:06;99894.84;;;28.31;58.65
7333;BME280;3707;43.618;25.342;2023-05-22T12:21:33;99878.34;;;27.65;58.87
7333;BME280;3707;43.618;25.342;2023-05-22T12:24:02;99880.69;;;27.55;57.68
7333;BME280;3707;43.618;25.342;2023-05-22T12:26:29;99852.16;;;27.42;57.03
7333;BME280;3707;43.618;25.342;2023-05-22T12:28:56;99869.63;;;27.47;58.77
7333;BME280;3707;43.618;25.342;2023-05-22T12:31:24;99865.16;;;27.48;57.27
7333;BME280;3707;43.618;25.342;2023-05-22T12:33:53;99858.50;;;27.71;56.96
7333;BME280;3707;43.618;25.342;2023-05-22T12:36:20;99851.97;;;27.90;57.00
7333;BME280;3707;43.618;25.342;2023-05-22T12:38:47;99864.81;;;28.14;54.47
7333;BME280;3707;43.618;25.342;2023-05-22T12:41:14;99727.06;;;27.70;54.07
7333;BME280;3707;43.618;25.342;2023-05-22T12:43:41;99854.38;;;28.81;53.52
7333;BME280;3707;43.618;25.342;2023-05-22T12:46:08;99853.25;;;28.57;53.79
7333;BME280;3707;43.618;25.342;2023-05-22T12:48:35;99855.94;;;28.71;54.74
7333;BME280;3707;43.618;25.342;2023-05-22T12:51:03;99834.38;;;28.74;52.78
7333;BME280;3707;43.618;25.342;2023-05-22T12:53:30;99853.91;;;28.89;50.58
7333;BME280;3707;43.618;25.342;2023-05-22T12:55:57;99854.00;;;28.73;49.20
7333;BME280;3707;43.618;25.342;2023-05-22T12:58:24;99846.84;;;28.88;50.44
7333;BME280;3707;43.618;25.342;2023-05-22T13:00:51;99835.13;;;28.76;50.88
7333;BME280;3707;43.618;25.342;2023-05-22T13:03:17;99835.19;;;27.74;51.72
7333;BME280;3707;43.618;25.342;2023-05-22T13:05:44;99842.81;;;27.19;53.06